BAW37B LPPR-EGKK
Flight info
| Callsign | BAW37B |
|---|---|
| Flight time | N/A |
| Altitude | 24000 |
| Route | TURON P600 ASDEB/N0485F380 DCT KORUL DCT FEJAC DCT JSY/N0466F340 DCT REVTU/N0445F280 UP88 ODREP/N0420F240 P88 VASUX |
| Aircraft | B77W/H-SDE1E2E3FGHIJ2J3J4J5M1RWXY/LB1D1 |
Departure
| Time | 2026-05-04 15:59 |
|---|---|
| Airport | Francisco de Sá Carneiro Airport (LPPR) |
Arrival
| Time | N/A |
|---|---|
| Airport | London Gatwick Airport (EGKK) |
| Time | Latitude | Longitude | Altitude | Speed | Heading |
|---|---|---|---|---|---|
| 2026-05-04 15:56 | 41.23311 | -8.67574 | 277 ft | 0 kts | 258° |
| 2026-05-04 15:58 | 41.23303 | -8.67628 | 280 ft | 13 kts | 258° |
| 2026-05-04 15:58 | 41.23312 | -8.67738 | 282 ft | 13 kts | 327° |
| 2026-05-04 15:58 | 41.23457 | -8.67776 | 276 ft | 50 kts | 349° |
| 2026-05-04 15:58 | 41.24104 | -8.67945 | 251 ft | 136 kts | 348° |
| 2026-05-04 15:59 | 41.25237 | -8.68252 | 362 ft | 184 kts | 347° |
| 2026-05-04 15:59 | 41.26459 | -8.68598 | 1385 ft | 178 kts | 342° |
| 2026-05-04 15:59 | 41.27693 | -8.68925 | 2292 ft | 184 kts | 346° |
| 2026-05-04 15:59 | 41.29037 | -8.69254 | 2690 ft | 212 kts | 346° |
| 2026-05-04 16:00 | 41.30574 | -8.69638 | 3192 ft | 232 kts | 345° |
| 2026-05-04 16:00 | 41.32203 | -8.70051 | 3970 ft | 243 kts | 345° |
| 2026-05-04 16:00 | 41.33879 | -8.70484 | 4891 ft | 247 kts | 348° |
| 2026-05-04 16:00 | 41.35644 | -8.70531 | 5639 ft | 260 kts | 3° |
| 2026-05-04 16:01 | 41.37467 | -8.70183 | 6580 ft | 266 kts | 5° |
| 2026-05-04 16:01 | 41.39307 | -8.69763 | 7455 ft | 272 kts | 7° |
| 2026-05-04 16:01 | 41.41171 | -8.69337 | 8320 ft | 277 kts | 6° |
| 2026-05-04 16:01 | 41.43090 | -8.68912 | 9256 ft | 281 kts | 5° |
| 2026-05-04 16:02 | 41.45041 | -8.68495 | 10143 ft | 287 kts | 5° |
| 2026-05-04 16:02 | 41.47069 | -8.68075 | 10689 ft | 306 kts | 5° |
| 2026-05-04 16:02 | 41.51691 | -8.67155 | 11272 ft | 360 kts | 5° |
| 2026-05-04 16:03 | 41.54213 | -8.66654 | 12153 ft | 370 kts | 5° |
| 2026-05-04 16:03 | 41.56784 | -8.66145 | 13275 ft | 376 kts | 5° |
| 2026-05-04 16:03 | 41.59344 | -8.65638 | 14364 ft | 380 kts | 5° |
| 2026-05-04 16:03 | 41.62018 | -8.65111 | 15290 ft | 388 kts | 4° |
| 2026-05-04 16:04 | 41.64685 | -8.64590 | 16235 ft | 394 kts | 4° |
| 2026-05-04 16:04 | 41.70198 | -8.63512 | 18241 ft | 406 kts | 4° |
| 2026-05-04 16:04 | 41.73020 | -8.62961 | 19108 ft | 412 kts | 4° |
| 2026-05-04 16:05 | 41.75886 | -8.62400 | 19974 ft | 418 kts | 3° |
| 2026-05-04 16:05 | 41.78790 | -8.61830 | 20819 ft | 423 kts | 3° |
| 2026-05-04 16:05 | 41.84640 | -8.60680 | 22469 ft | 433 kts | 3° |
| 2026-05-04 16:06 | 41.87647 | -8.60088 | 23285 ft | 439 kts | 2° |
| 2026-05-04 16:06 | 41.95825 | -8.58474 | 24071 ft | 446 kts | 3° |
| 2026-05-04 16:07 | 41.99908 | -8.57665 | 24077 ft | 447 kts | 3° |
| 2026-05-04 16:07 | 42.05033 | -8.56650 | 24065 ft | 446 kts | 2° |
| 2026-05-04 16:09 | 42.33645 | -8.52061 | 24086 ft | 446 kts | 2° |
| 2026-05-04 16:10 | 42.39836 | -8.51078 | 24089 ft | 458 kts | 2° |
| 2026-05-04 16:11 | 42.49657 | -8.49305 | 24069 ft | 481 kts | 9° |
| 2026-05-04 16:11 | 42.52893 | -8.48086 | 24130 ft | 483 kts | 15° |
| 2026-05-04 16:12 | 42.61935 | -8.42564 | 26853 ft | 476 kts | 22° |
| 2026-05-04 16:12 | 42.71064 | -8.36538 | 28414 ft | 495 kts | 21° |
| 2026-05-04 16:13 | 42.77340 | -8.32418 | 29337 ft | 507 kts | 22° |
| 2026-05-04 16:13 | 42.83783 | -8.28191 | 30186 ft | 517 kts | 22° |
| 2026-05-04 16:14 | 42.90224 | -8.23952 | 31222 ft | 515 kts | 22° |
| 2026-05-04 16:14 | 42.96630 | -8.19722 | 32565 ft | 507 kts | 22° |
| 2026-05-04 16:15 | 43.06131 | -8.13440 | 34188 ft | 503 kts | 22° |
| 2026-05-04 16:16 | 43.12423 | -8.09270 | 34999 ft | 501 kts | 22° |
| 2026-05-04 16:16 | 43.21818 | -8.03025 | 36224 ft | 499 kts | 23° |
| 2026-05-04 16:17 | 43.28022 | -7.98888 | 36943 ft | 498 kts | 23° |
| 2026-05-04 16:18 | 43.37432 | -7.92597 | 37066 ft | 501 kts | 23° |
| 2026-05-04 16:18 | 43.40564 | -7.90496 | 37050 ft | 497 kts | 23° |
| 2026-05-04 16:19 | 43.56069 | -7.80067 | 37151 ft | 499 kts | 23° |
| 2026-05-04 16:20 | 43.65364 | -7.73787 | 38274 ft | 495 kts | 24° |
| 2026-05-04 16:20 | 43.71547 | -7.69596 | 38879 ft | 495 kts | 24° |
| 2026-05-04 16:21 | 43.80810 | -7.63300 | 39759 ft | 489 kts | 24° |
| 2026-05-04 16:22 | 43.86966 | -7.59104 | 40002 ft | 491 kts | 24° |
| 2026-05-04 16:23 | 44.05136 | -7.46662 | 40004 ft | 481 kts | 24° |
| 2026-05-04 16:24 | 44.16106 | -7.39110 | 39374 ft | 481 kts | 24° |
| 2026-05-04 16:25 | 44.22170 | -7.34924 | 38483 ft | 489 kts | 25° |
| 2026-05-04 16:26 | 44.34443 | -7.26415 | 37991 ft | 494 kts | 25° |
| 2026-05-04 16:26 | 44.43625 | -7.20023 | 37988 ft | 491 kts | 25° |